Terminal Aerodrome Forecast
Issued by NWS

Home | Current Version | Previous Version | Graphics & Text | Print | Product List | Glossary On
Versions: 1 2 3 4 5 6 7 8 9 10 11 12 13 14 15 16 17 18 19 20 21 22 23
602
FTUS45 KGGW 230520
TAFGDV
TAF
KGDV 230520Z 2306/2406 24005KT P6SM FEW120
     FM230800 23006KT P6SM FEW110 WS020/29035KT
     FM231600 23010KT P6SM BKN045
     FM232000 23011KT P6SM SCT120
     FM240000 23010KT P6SM FEW140 WS020/26040KT=

USA.gov is the U.S. government's official web portal to all federal, state and local government web resources and services.